createdAt,value
2023-03-29T00:00:39.212Z,85.97
2023-03-29T00:01:39.270Z,85.97
2023-03-29T00:02:39.412Z,85.97
2023-03-29T00:03:39.245Z,85.76
2023-03-29T00:04:39.227Z,85.55
2023-03-29T00:05:39.169Z,85.66
2023-03-29T00:06:39.169Z,85.66
2023-03-29T00:07:39.177Z,85.55
2023-03-29T00:08:39.152Z,85.55
2023-03-29T00:09:39.128Z,85.45
2023-03-29T00:10:39.106Z,85.45
2023-03-29T00:11:39.108Z,85.66
2023-03-29T00:12:39.188Z,85.76
2023-03-29T00:13:39.082Z,85.86
2023-03-29T00:14:39.056Z,86.07
2023-03-29T00:15:39.050Z,86.07
2023-03-29T00:16:39.082Z,85.97
2023-03-29T00:17:39.199Z,85.76
2023-03-29T00:18:39.006Z,85.76
2023-03-29T00:19:39.002Z,85.76
2023-03-29T00:20:39.001Z,85.86
2023-03-29T00:21:38.993Z,85.76
2023-03-29T00:22:38.979Z,85.97
2023-03-29T00:23:39.025Z,85.76
2023-03-29T00:24:38.955Z,85.97
2023-03-29T00:25:38.993Z,85.86
2023-03-29T00:26:38.924Z,85.86
2023-03-29T00:27:39.085Z,85.55
2023-03-29T00:28:39.011Z,85.55
2023-03-29T00:29:38.898Z,85.45
2023-03-29T00:30:38.896Z,85.24
2023-03-29T00:31:38.926Z,85.04
2023-03-29T00:32:38.944Z,85.04
2023-03-29T00:33:38.849Z,84.83
2023-03-29T00:34:38.837Z,84.83
2023-03-29T00:35:38.908Z,84.94
2023-03-29T00:36:38.833Z,84.83
2023-03-29T00:37:38.850Z,84.94
2023-03-29T00:38:38.846Z,84.94
2023-03-29T00:39:38.791Z,84.73
2023-03-29T00:40:38.785Z,84.94
2023-03-29T00:41:38.771Z,84.83
2023-03-29T00:42:38.778Z,84.94
2023-03-29T00:43:38.795Z,84.94
2023-03-29T00:44:38.735Z,84.94
2023-03-29T00:45:38.716Z,85.14
2023-03-29T00:46:38.750Z,85.04
2023-03-29T00:47:38.779Z,85.24
2023-03-29T00:48:38.692Z,85.14
2023-03-29T00:49:38.792Z,85.35
2023-03-29T00:50:38.670Z,85.14
2023-03-29T00:51:38.667Z,85.14
2023-03-29T00:52:38.662Z,85.14
2023-03-29T00:53:38.645Z,85.24
2023-03-29T00:54:38.624Z,85.04
2023-03-29T00:55:38.614Z,85.04
2023-03-29T00:56:38.682Z,85.14
2023-03-29T00:57:38.615Z,85.04
2023-03-29T00:58:38.632Z,85.04
2023-03-29T00:59:38.569Z,85.04
2023-03-29T01:00:38.558Z,85.14
2023-03-29T01:01:38.572Z,85.14
2023-03-29T01:02:38.804Z,85.14
2023-03-29T01:03:38.711Z,85.14
2023-03-29T01:04:38.533Z,85.24
2023-03-29T01:05:38.504Z,85.35
2023-03-29T01:06:38.575Z,85.24
2023-03-29T01:07:38.505Z,85.14
2023-03-29T01:08:38.488Z,84.94
2023-03-29T01:09:38.509Z,85.14
2023-03-29T01:10:38.460Z,85.04
2023-03-29T01:11:38.441Z,85.04
2023-03-29T01:12:38.460Z,85.04
2023-03-29T01:13:38.437Z,84.94
2023-03-29T01:14:38.418Z,85.04
2023-03-29T01:15:38.398Z,84.94
2023-03-29T01:16:38.477Z,85.14
2023-03-29T01:17:38.458Z,85.14
2023-03-29T01:18:38.373Z,85.24
2023-03-29T01:19:38.369Z,85.14
2023-03-29T01:20:38.351Z,84.94
2023-03-29T01:21:38.353Z,85.04
2023-03-29T01:22:38.342Z,84.94
2023-03-29T01:23:38.360Z,85.14
2023-03-29T01:24:38.311Z,84.94
2023-03-29T01:25:38.293Z,85.04
2023-03-29T01:26:38.315Z,85.14
2023-03-29T01:27:38.307Z,85.04
2023-03-29T01:28:38.277Z,85.00
2023-03-29T01:29:38.264Z,85.14
2023-03-29T01:30:38.263Z,84.79
2023-03-29T01:31:38.294Z,84.79
2023-03-29T01:32:38.252Z,84.89
2023-03-29T01:33:38.216Z,84.79
2023-03-29T01:34:38.217Z,84.79
2023-03-29T01:35:38.210Z,84.69
2023-03-29T01:36:38.241Z,84.69
2023-03-29T01:37:38.181Z,84.69
2023-03-29T01:38:38.156Z,84.69
2023-03-29T01:39:38.183Z,84.59
2023-03-29T01:40:38.152Z,84.38
2023-03-29T01:41:38.124Z,84.59
2023-03-29T01:42:38.128Z,84.69
2023-03-29T01:43:38.099Z,84.38
2023-03-29T01:44:38.115Z,84.59
2023-03-29T01:45:38.103Z,84.28
2023-03-29T01:46:38.196Z,84.28
2023-03-29T01:47:38.154Z,84.48
2023-03-29T01:48:38.063Z,84.38
2023-03-29T01:49:38.078Z,84.48
2023-03-29T01:50:38.046Z,84.38
2023-03-29T01:51:38.033Z,84.28
2023-03-29T01:52:38.039Z,84.28
2023-03-29T01:53:38.010Z,84.17
2023-03-29T01:54:37.977Z,84.07
2023-03-29T01:55:38.076Z,83.65
2023-03-29T01:56:37.962Z,83.97
2023-03-29T01:57:37.955Z,84.07
2023-03-29T01:58:37.956Z,83.97
2023-03-29T01:59:37.933Z,83.86
2023-03-29T02:00:37.945Z,84.07
2023-03-29T02:01:37.940Z,83.97
2023-03-29T02:02:38.032Z,83.76
2023-03-29T02:03:37.933Z,83.86
2023-03-29T02:04:37.881Z,83.76
2023-03-29T02:05:37.877Z,83.65
2023-03-29T02:06:37.871Z,83.76
2023-03-29T02:07:37.846Z,83.65
2023-03-29T02:08:37.890Z,83.51
2023-03-29T02:09:37.828Z,83.51
2023-03-29T02:10:37.826Z,83.51
2023-03-29T02:11:37.817Z,83.41
2023-03-29T02:12:37.795Z,83.41
2023-03-29T02:13:37.789Z,83.10
2023-03-29T02:14:37.776Z,83.10
2023-03-29T02:15:37.778Z,82.69
2023-03-29T02:16:37.857Z,82.89
2023-03-29T02:17:37.803Z,82.79
2023-03-29T02:18:37.742Z,83.00
2023-03-29T02:19:37.776Z,83.00
2023-03-29T02:20:37.710Z,83.00
2023-03-29T02:21:37.714Z,83.20
2023-03-29T02:22:37.694Z,83.10
2023-03-29T02:23:37.691Z,83.00
2023-03-29T02:24:37.668Z,83.00
2023-03-29T02:25:37.651Z,82.89
2023-03-29T02:26:37.658Z,83.00
2023-03-29T02:27:37.620Z,83.00
2023-03-29T02:28:37.636Z,83.10
2023-03-29T02:29:37.609Z,82.79
2023-03-29T02:30:37.643Z,82.79
2023-03-29T02:31:37.673Z,82.59
2023-03-29T02:32:37.628Z,82.48
2023-03-29T02:33:37.600Z,82.38
2023-03-29T02:34:37.579Z,82.45
2023-03-29T02:35:37.602Z,82.28
2023-03-29T02:36:37.546Z,82.45
2023-03-29T02:37:37.557Z,82.34
2023-03-29T02:38:37.556Z,82.34
2023-03-29T02:39:37.503Z,82.34
2023-03-29T02:40:37.535Z,82.34
2023-03-29T02:41:37.482Z,82.24
2023-03-29T02:42:37.472Z,81.93
2023-03-29T02:43:37.514Z,81.82
2023-03-29T02:44:37.448Z,81.62
2023-03-29T02:45:37.445Z,81.82
2023-03-29T02:46:37.439Z,81.93
2023-03-29T02:47:37.474Z,81.82
2023-03-29T02:48:37.472Z,81.82
2023-03-29T02:49:37.434Z,81.62
2023-03-29T02:50:37.402Z,81.72
2023-03-29T02:51:37.406Z,81.93
2023-03-29T02:52:37.372Z,81.62
2023-03-29T02:53:37.387Z,81.51
2023-03-29T02:54:37.353Z,81.62
2023-03-29T02:55:37.331Z,81.62
2023-03-29T02:56:37.376Z,81.62
2023-03-29T02:57:37.304Z,81.72
2023-03-29T02:58:37.386Z,81.72
2023-03-29T02:59:37.293Z,81.82
2023-03-29T03:00:37.285Z,81.51
2023-03-29T03:01:37.327Z,81.62
2023-03-29T03:02:37.356Z,81.62
2023-03-29T03:03:37.322Z,81.72
2023-03-29T03:04:37.311Z,81.72
2023-03-29T03:05:37.223Z,81.93
2023-03-29T03:06:37.248Z,81.93
2023-03-29T03:07:37.276Z,81.93
2023-03-29T03:08:37.236Z,82.14
2023-03-29T03:09:37.225Z,82.03
2023-03-29T03:10:37.184Z,81.93
2023-03-29T03:11:37.164Z,82.24
2023-03-29T03:12:37.151Z,82.24
2023-03-29T03:13:37.154Z,82.14
2023-03-29T03:14:37.141Z,82.55
2023-03-29T03:15:37.174Z,82.65
2023-03-29T03:16:37.201Z,82.34
2023-03-29T03:17:37.115Z,82.45
2023-03-29T03:18:37.123Z,82.65
2023-03-29T03:19:37.121Z,82.75
2023-03-29T03:20:37.065Z,82.96
2023-03-29T03:21:37.055Z,82.86
2023-03-29T03:22:37.083Z,82.96
2023-03-29T03:23:37.036Z,82.96
2023-03-29T03:24:37.030Z,82.86
2023-03-29T03:25:37.007Z,82.75
2023-03-29T03:26:37.037Z,82.86
2023-03-29T03:27:37.013Z,83.06
2023-03-29T03:28:36.995Z,83.17
2023-03-29T03:29:36.978Z,83.17
2023-03-29T03:30:36.959Z,83.06
2023-03-29T03:31:37.016Z,82.96
2023-03-29T03:32:36.968Z,83.06
2023-03-29T03:33:36.933Z,82.96
2023-03-29T03:34:36.983Z,82.86
2023-03-29T03:35:36.912Z,82.65
2023-03-29T03:36:36.929Z,82.55
2023-03-29T03:37:36.871Z,82.45
2023-03-29T03:38:36.881Z,82.55
2023-03-29T03:39:36.855Z,82.24
2023-03-29T03:40:36.926Z,82.03
2023-03-29T03:41:36.846Z,81.82
2023-03-29T03:42:36.853Z,81.79
2023-03-29T03:43:36.808Z,81.68
2023-03-29T03:44:36.873Z,81.27
2023-03-29T03:45:36.820Z,81.07
2023-03-29T03:46:36.793Z,81.07
2023-03-29T03:47:36.784Z,81.07
2023-03-29T03:48:36.772Z,81.17
2023-03-29T03:49:36.810Z,80.96
2023-03-29T03:50:36.758Z,80.96
2023-03-29T03:51:36.720Z,80.86
2023-03-29T03:52:36.720Z,80.55
2023-03-29T03:53:36.720Z,80.24
2023-03-29T03:54:36.700Z,80.24
2023-03-29T03:55:36.680Z,80.55
2023-03-29T03:56:36.793Z,80.24
2023-03-29T03:57:36.676Z,80.55
2023-03-29T03:58:36.671Z,80.55
2023-03-29T03:59:36.648Z,80.24
2023-03-29T04:00:36.635Z,80.24
2023-03-29T04:01:36.611Z,80.34
2023-03-29T04:02:36.730Z,80.04
2023-03-29T04:03:36.714Z,79.93
2023-03-29T04:04:36.740Z,79.69
2023-03-29T04:05:36.575Z,79.27
2023-03-29T04:06:36.578Z,78.97
2023-03-29T04:07:36.560Z,78.97
2023-03-29T04:08:36.581Z,79.17
2023-03-29T04:09:36.528Z,79.27
2023-03-29T04:10:36.522Z,79.48
2023-03-29T04:11:36.514Z,79.58
2023-03-29T04:12:36.577Z,79.48
2023-03-29T04:13:36.528Z,79.27
2023-03-29T04:14:36.524Z,78.97
2023-03-29T04:15:36.536Z,79.07
2023-03-29T04:16:36.539Z,79.17
2023-03-29T04:17:36.540Z,79.38
2023-03-29T04:18:36.516Z,79.58
2023-03-29T04:19:36.430Z,79.69
2023-03-29T04:20:36.422Z,80.10
2023-03-29T04:21:36.411Z,80.20
2023-03-29T04:22:36.516Z,80.41
2023-03-29T04:23:36.393Z,80.51
2023-03-29T04:24:36.378Z,80.62
2023-03-29T04:25:36.400Z,80.72
2023-03-29T04:26:36.357Z,80.72
2023-03-29T04:27:36.336Z,80.93
2023-03-29T04:28:36.346Z,81.23
2023-03-29T04:29:36.332Z,81.23
2023-03-29T04:30:36.307Z,81.44
2023-03-29T04:31:36.353Z,81.23
2023-03-29T04:32:36.343Z,81.34
2023-03-29T04:33:36.294Z,81.23
2023-03-29T04:34:36.342Z,81.34
2023-03-29T04:35:36.281Z,81.34
2023-03-29T04:36:36.272Z,81.44
2023-03-29T04:37:36.245Z,81.23
2023-03-29T04:38:36.250Z,81.44
2023-03-29T04:39:36.215Z,81.44
2023-03-29T04:40:36.236Z,81.54
2023-03-29T04:41:36.218Z,81.54
2023-03-29T04:42:36.184Z,80.93
2023-03-29T04:43:38.382Z,81.03
2023-03-29T04:44:36.195Z,81.23
2023-03-29T04:45:36.154Z,81.44
2023-03-29T04:46:36.198Z,81.44
2023-03-29T04:47:36.351Z,81.44
2023-03-29T04:48:36.133Z,81.13
2023-03-29T04:49:36.181Z,81.03
2023-03-29T04:50:36.105Z,81.03
2023-03-29T04:51:36.094Z,81.03
2023-03-29T04:52:36.100Z,81.23
2023-03-29T04:53:36.103Z,81.23
2023-03-29T04:54:36.073Z,81.34
2023-03-29T04:55:36.047Z,81.44
2023-03-29T04:56:36.046Z,81.44
2023-03-29T04:57:36.036Z,81.44
2023-03-29T04:58:36.098Z,81.54
2023-03-29T04:59:36.066Z,81.34
2023-03-29T05:00:35.995Z,81.44
2023-03-29T05:01:36.016Z,81.34
2023-03-29T05:02:36.024Z,81.03
2023-03-29T05:03:36.085Z,81.03
2023-03-29T05:04:35.978Z,81.03
2023-03-29T05:05:35.945Z,81.03
2023-03-29T05:06:35.951Z,80.93
2023-03-29T05:07:35.931Z,80.82
2023-03-29T05:08:35.995Z,80.82
2023-03-29T05:09:35.914Z,80.79
2023-03-29T05:10:35.890Z,80.89
2023-03-29T05:11:35.890Z,80.79
2023-03-29T05:12:35.901Z,80.68
2023-03-29T05:13:35.868Z,80.68
2023-03-29T05:14:35.852Z,80.79
2023-03-29T05:15:35.898Z,80.79
2023-03-29T05:16:35.923Z,80.68
2023-03-29T05:17:35.838Z,80.47
2023-03-29T05:18:35.812Z,80.68
2023-03-29T05:19:35.968Z,80.89
2023-03-29T05:20:35.783Z,80.58
2023-03-29T05:21:35.809Z,80.68
2023-03-29T05:22:35.786Z,80.37
2023-03-29T05:23:35.785Z,80.37
2023-03-29T05:24:35.740Z,80.47
2023-03-29T05:25:35.729Z,80.37
2023-03-29T05:26:35.730Z,80.37
2023-03-29T05:27:35.703Z,80.47
2023-03-29T05:28:35.724Z,80.06
2023-03-29T05:29:35.730Z,79.96
2023-03-29T05:30:35.721Z,80.06
2023-03-29T05:31:35.676Z,79.86
2023-03-29T05:32:35.765Z,79.96
2023-03-29T05:33:36.004Z,79.86
2023-03-29T05:34:35.652Z,79.96
2023-03-29T05:35:35.639Z,80.06
2023-03-29T05:36:35.605Z,79.86
2023-03-29T05:37:35.662Z,80.06
2023-03-29T05:38:35.766Z,80.16
2023-03-29T05:39:37.636Z,80.06
2023-03-29T05:40:35.581Z,79.96
2023-03-29T05:41:35.886Z,80.06
2023-03-29T05:42:35.623Z,80.06
2023-03-29T05:43:35.529Z,80.06
2023-03-29T05:44:35.573Z,79.75
2023-03-29T05:45:35.527Z,79.96
2023-03-29T05:46:35.506Z,79.86
2023-03-29T05:47:35.551Z,79.96
2023-03-29T05:48:35.487Z,79.96
2023-03-29T05:49:35.499Z,80.06
2023-03-29T05:50:35.468Z,80.06
2023-03-29T05:51:35.460Z,80.16
2023-03-29T05:52:35.449Z,80.16
2023-03-29T05:53:35.448Z,80.16
2023-03-29T05:54:35.422Z,80.06
2023-03-29T05:55:35.403Z,80.27
2023-03-29T05:56:35.424Z,80.58
2023-03-29T05:57:35.410Z,80.33
2023-03-29T05:58:35.383Z,80.44
2023-03-29T05:59:35.353Z,80.44
2023-03-29T06:00:35.352Z,80.23
2023-03-29T06:01:35.364Z,80.13
2023-03-29T06:02:35.433Z,80.02
2023-03-29T06:03:35.416Z,80.13
2023-03-29T06:04:35.368Z,80.33
2023-03-29T06:05:35.341Z,80.23
2023-03-29T06:06:35.314Z,80.13
2023-03-29T06:07:35.276Z,80.02
2023-03-29T06:08:35.361Z,79.93
2023-03-29T06:09:35.290Z,79.82
2023-03-29T06:10:35.258Z,79.82
2023-03-29T06:11:35.226Z,79.82
2023-03-29T06:12:35.279Z,79.72
2023-03-29T06:13:35.229Z,79.72
2023-03-29T06:14:35.213Z,79.61
2023-03-29T06:15:35.249Z,79.82
2023-03-29T06:16:35.222Z,79.61
2023-03-29T06:17:35.198Z,79.72
2023-03-29T06:18:35.202Z,80.02
2023-03-29T06:19:35.143Z,80.02
2023-03-29T06:20:35.144Z,80.13
2023-03-29T06:21:35.123Z,79.82
2023-03-29T06:22:35.135Z,79.88
2023-03-29T06:23:35.169Z,80.09
2023-03-29T06:24:35.095Z,79.99
2023-03-29T06:25:35.079Z,80.19
2023-03-29T06:26:35.069Z,80.30
2023-03-29T06:27:35.071Z,80.40
2023-03-29T06:28:35.187Z,80.61
2023-03-29T06:29:35.054Z,80.40
2023-03-29T06:30:35.036Z,80.71
2023-03-29T06:31:35.057Z,80.19
2023-03-29T06:32:35.083Z,80.30
2023-03-29T06:33:35.250Z,80.61
2023-03-29T06:34:37.312Z,80.19
2023-03-29T06:35:35.028Z,80.30
2023-03-29T06:36:34.988Z,80.40
2023-03-29T06:37:34.966Z,80.30
2023-03-29T06:38:34.981Z,80.16
2023-03-29T06:39:34.966Z,80.16
2023-03-29T06:40:34.953Z,80.16
2023-03-29T06:41:34.914Z,79.95
2023-03-29T06:42:34.936Z,79.95
2023-03-29T06:43:35.087Z,80.05
2023-03-29T06:44:34.882Z,79.75
2023-03-29T06:45:34.881Z,79.85
2023-03-29T06:46:34.893Z,79.75
2023-03-29T06:47:34.867Z,79.44
2023-03-29T06:48:34.845Z,79.23
2023-03-29T06:49:34.817Z,79.23
2023-03-29T06:50:34.822Z,78.99
2023-03-29T06:51:34.842Z,78.89
2023-03-29T06:52:34.816Z,78.58
2023-03-29T06:53:34.789Z,78.89
2023-03-29T06:54:34.774Z,78.99
2023-03-29T06:55:34.756Z,79.30
2023-03-29T06:56:34.771Z,79.50
2023-03-29T06:57:34.741Z,79.40
2023-03-29T06:58:34.745Z,79.36
2023-03-29T06:59:35.056Z,79.05
2023-03-29T07:00:34.709Z,78.64
2023-03-29T07:01:34.922Z,79.05
2023-03-29T07:02:34.753Z,79.16
2023-03-29T07:03:34.732Z,79.26
2023-03-29T07:04:34.758Z,78.96
2023-03-29T07:05:34.690Z,79.16
2023-03-29T07:06:34.672Z,79.16
2023-03-29T07:07:34.631Z,78.75
2023-03-29T07:08:34.642Z,78.96
2023-03-29T07:09:34.632Z,79.36
2023-03-29T07:10:34.634Z,79.16
2023-03-29T07:11:34.591Z,79.05
2023-03-29T07:12:34.622Z,78.96
2023-03-29T07:13:34.863Z,78.54
2023-03-29T07:14:34.558Z,78.54
2023-03-29T07:15:34.547Z,78.44
2023-03-29T07:16:34.605Z,78.33
2023-03-29T07:17:34.547Z,78.50
2023-03-29T07:18:34.518Z,78.50
2023-03-29T07:19:34.505Z,78.50
2023-03-29T07:20:34.521Z,78.81
2023-03-29T07:21:36.695Z,78.20
2023-03-29T07:22:34.469Z,79.02
2023-03-29T07:23:34.483Z,78.71
2023-03-29T07:24:34.440Z,77.99
2023-03-29T07:25:34.448Z,77.68
2023-03-29T07:26:34.559Z,77.78
2023-03-29T07:27:34.429Z,77.89
2023-03-29T07:28:34.423Z,78.40
2023-03-29T07:29:34.598Z,78.47
2023-03-29T07:30:34.376Z,77.95
2023-03-29T07:31:34.366Z,77.85
2023-03-29T07:32:34.461Z,78.06
2023-03-29T07:33:34.475Z,77.95
2023-03-29T07:34:34.340Z,77.95
2023-03-29T07:35:34.392Z,77.65
2023-03-29T07:36:34.336Z,77.75
2023-03-29T07:37:34.507Z,77.55
2023-03-29T07:38:34.361Z,77.75
2023-03-29T07:39:34.270Z,77.61
2023-03-29T07:40:34.763Z,77.30
2023-03-29T07:41:34.334Z,77.40
2023-03-29T07:42:34.270Z,77.51
2023-03-29T07:43:34.244Z,77.51
2023-03-29T07:44:34.459Z,76.65
2023-03-29T07:45:34.326Z,76.96
2023-03-29T07:46:34.246Z,75.83
2023-03-29T07:47:34.459Z,76.14
2023-03-29T07:48:34.192Z,76.24
2023-03-29T07:49:34.173Z,76.31
2023-03-29T07:50:34.163Z,76.72
2023-03-29T07:51:34.247Z,76.82
2023-03-29T07:52:34.148Z,76.00
2023-03-29T07:53:34.282Z,75.69
2023-03-29T07:54:34.149Z,75.18
2023-03-29T07:55:34.300Z,75.66
2023-03-29T07:56:34.169Z,75.24
2023-03-29T07:57:34.107Z,75.56
2023-03-29T07:58:34.115Z,75.42
2023-03-29T07:59:34.364Z,75.42
2023-03-29T08:00:34.126Z,74.70
2023-03-29T08:01:34.220Z,75.11
2023-03-29T08:02:34.157Z,75.21
2023-03-29T08:03:34.045Z,74.60
2023-03-29T08:04:34.324Z,75.31
2023-03-29T08:05:41.229Z,75.42
2023-03-29T08:06:34.982Z,74.70
2023-03-29T08:07:33.979Z,74.39
2023-03-29T08:08:33.971Z,74.49
2023-03-29T08:09:33.957Z,74.49
2023-03-29T08:10:33.936Z,74.90
2023-03-29T08:11:34.015Z,74.49
2023-03-29T08:12:33.937Z,74.56
2023-03-29T08:13:34.140Z,74.56
2023-03-29T08:14:33.918Z,74.66
2023-03-29T08:15:33.889Z,74.97
2023-03-29T08:16:33.926Z,74.77
2023-03-29T08:17:33.973Z,74.43
2023-03-29T08:18:34.994Z,74.22
2023-03-29T08:19:33.882Z,74.22
2023-03-29T08:20:33.864Z,73.81
2023-03-29T08:21:33.824Z,73.91
2023-03-29T08:22:33.874Z,73.91
2023-03-29T08:23:33.942Z,73.61
2023-03-29T08:24:34.176Z,74.02
2023-03-29T08:25:33.874Z,74.32
2023-03-29T08:26:33.784Z,73.50
2023-03-29T08:27:33.763Z,73.71
2023-03-29T08:28:33.998Z,74.02
2023-03-29T08:29:33.910Z,74.39
2023-03-29T08:30:34.595Z,74.29
2023-03-29T08:31:33.920Z,74.90
2023-03-29T08:32:44.890Z,73.88
2023-03-29T08:33:34.973Z,73.98
2023-03-29T08:34:34.169Z,74.29
2023-03-29T08:35:33.752Z,73.98
2023-03-29T08:36:43.110Z,74.26
2023-03-29T08:37:33.736Z,74.26
2023-03-29T08:38:34.590Z,73.98
2023-03-29T08:39:33.872Z,74.39
2023-03-29T08:40:33.808Z,74.29
2023-03-29T08:41:33.957Z,75.31
2023-03-29T08:42:33.708Z,75.17
2023-03-29T08:43:33.614Z,75.07
2023-03-29T08:44:33.587Z,74.87
2023-03-29T08:45:33.568Z,74.60
2023-03-29T08:46:35.340Z,75.10
2023-03-29T08:47:33.610Z,74.49
2023-03-29T08:48:33.690Z,75.21
2023-03-29T08:49:33.530Z,75.21
2023-03-29T08:50:33.613Z,75.10
2023-03-29T08:51:33.732Z,76.13
2023-03-29T08:52:33.487Z,75.42
2023-03-29T08:53:34.026Z,74.80
2023-03-29T08:54:33.561Z,75.48
2023-03-29T08:55:33.463Z,75.48
2023-03-29T08:56:34.215Z,75.68
2023-03-29T08:57:33.507Z,75.59
2023-03-29T08:58:33.477Z,76.30
2023-03-29T08:59:38.987Z,76.91
2023-03-29T09:00:33.565Z,76.61
2023-03-29T09:01:33.810Z,75.38
2023-03-29T09:02:33.524Z,76.50
2023-03-29T09:03:33.440Z,76.30
2023-03-29T09:04:34.530Z,76.09
2023-03-29T09:05:33.349Z,75.38
2023-03-29T09:06:34.234Z,75.89
2023-03-29T09:07:33.480Z,75.68
2023-03-29T09:08:33.327Z,74.93
2023-03-29T09:09:33.445Z,75.04
2023-03-29T09:10:33.415Z,75.65
2023-03-29T09:11:33.354Z,75.65
2023-03-29T09:12:35.769Z,75.24
2023-03-29T09:13:33.375Z,75.82
2023-03-29T09:14:33.601Z,76.43
2023-03-29T09:15:33.441Z,75.82
2023-03-29T09:16:33.539Z,75.62
2023-03-29T09:17:33.474Z,75.10
2023-03-29T09:18:33.249Z,74.87
2023-03-29T09:19:33.195Z,74.35
2023-03-29T09:20:33.267Z,74.15
2023-03-29T09:21:33.174Z,74.35
2023-03-29T09:22:33.360Z,73.19
2023-03-29T09:23:33.199Z,72.89
2023-03-29T09:24:33.150Z,72.58
2023-03-29T09:25:40.992Z,72.48
2023-03-29T09:26:34.173Z,72.17
2023-03-29T09:27:33.160Z,72.69
2023-03-29T09:28:33.527Z,72.55
2023-03-29T09:29:33.088Z,72.86
2023-03-29T09:30:33.077Z,72.96
2023-03-29T09:31:33.068Z,72.55
2023-03-29T09:32:33.197Z,72.55
2023-03-29T09:33:33.441Z,72.65
2023-03-29T09:34:33.119Z,73.13
2023-03-29T09:35:33.087Z,73.54
2023-03-29T09:36:33.084Z,73.74
2023-03-29T09:37:33.010Z,73.57
2023-03-29T09:38:34.556Z,73.57
2023-03-29T09:39:33.024Z,72.75
2023-03-29T09:40:33.550Z,72.04
2023-03-29T09:41:32.950Z,72.45
2023-03-29T09:42:33.370Z,72.14
2023-03-29T09:43:34.105Z,72.65
2023-03-29T09:44:33.175Z,72.65
2023-03-29T09:45:33.409Z,72.86
2023-03-29T09:46:32.922Z,73.98
2023-03-29T09:47:33.104Z,73.47
2023-03-29T09:48:33.409Z,72.34
2023-03-29T09:49:33.069Z,72.45
2023-03-29T09:50:33.038Z,72.45
2023-03-29T09:51:33.071Z,73.16
2023-03-29T09:52:32.833Z,72.86
2023-03-29T09:53:33.152Z,73.27
2023-03-29T09:54:32.920Z,73.36
2023-03-29T09:55:33.215Z,73.57
2023-03-29T09:56:32.986Z,73.88
2023-03-29T09:57:32.770Z,74.49
2023-03-29T09:58:32.836Z,74.49
2023-03-29T09:59:32.764Z,72.96
2023-03-29T10:00:32.809Z,73.43
2023-03-29T10:01:32.764Z,73.33
2023-03-29T10:02:32.810Z,72.92
2023-03-29T10:03:32.864Z,73.74
2023-03-29T10:04:32.780Z,71.39
2023-03-29T10:05:33.339Z,71.39
2023-03-29T10:06:32.690Z,70.92
2023-03-29T10:07:32.730Z,70.61
2023-03-29T10:08:33.185Z,71.33
2023-03-29T10:09:32.740Z,71.63
2023-03-29T10:10:32.708Z,72.14
2023-03-29T10:11:32.738Z,71.63
2023-03-29T10:12:32.780Z,71.91
2023-03-29T10:13:32.706Z,71.43
2023-03-29T10:14:32.806Z,71.33
2023-03-29T10:15:32.681Z,70.92
2023-03-29T10:16:32.725Z,71.33
2023-03-29T10:17:32.590Z,70.92
2023-03-29T10:18:32.609Z,71.84
2023-03-29T10:19:32.571Z,72.14
2023-03-29T10:20:32.561Z,72.65
2023-03-29T10:21:32.799Z,72.00
2023-03-29T10:22:32.523Z,72.21
2023-03-29T10:23:32.522Z,72.21
2023-03-29T10:24:32.523Z,72.11
2023-03-29T10:25:32.478Z,72.11
2023-03-29T10:26:32.476Z,72.41
2023-03-29T10:27:32.609Z,72.62
2023-03-29T10:28:32.511Z,72.52
2023-03-29T10:29:33.044Z,72.92
2023-03-29T10:30:32.687Z,72.92
2023-03-29T10:31:33.158Z,72.48
2023-03-29T10:32:32.667Z,71.87
2023-03-29T10:33:32.635Z,71.46
2023-03-29T10:34:32.393Z,71.56
2023-03-29T10:35:32.619Z,72.38
2023-03-29T10:36:32.364Z,70.54
2023-03-29T10:37:32.398Z,70.85
2023-03-29T10:38:32.368Z,71.26
2023-03-29T10:39:32.412Z,70.34
2023-03-29T10:40:32.528Z,70.75
2023-03-29T10:41:32.382Z,71.94
2023-03-29T10:42:32.964Z,69.80
2023-03-29T10:43:32.946Z,70.51
2023-03-29T10:44:33.245Z,71.73
2023-03-29T10:45:32.354Z,70.92
2023-03-29T10:46:32.339Z,70.10
2023-03-29T10:47:32.267Z,70.00
2023-03-29T10:48:32.383Z,70.10
2023-03-29T10:49:32.591Z,71.33
2023-03-29T10:50:32.670Z,70.21
2023-03-29T10:51:32.197Z,70.58
2023-03-29T10:52:32.305Z,69.87
2023-03-29T10:53:32.432Z,70.28
2023-03-29T10:54:32.384Z,70.07
2023-03-29T10:55:32.157Z,70.17
2023-03-29T10:56:32.409Z,69.84
2023-03-29T10:57:32.255Z,69.32
2023-03-29T10:58:32.745Z,70.65
2023-03-29T10:59:32.119Z,69.73
2023-03-29T11:00:32.490Z,70.41
2023-03-29T11:01:32.213Z,68.79
2023-03-29T11:02:32.409Z,70.21
2023-03-29T11:03:32.244Z,69.02
2023-03-29T11:04:32.060Z,69.43
2023-03-29T11:05:32.049Z,69.53
2023-03-29T11:06:32.124Z,68.82
2023-03-29T11:07:32.027Z,68.92
2023-03-29T11:08:32.180Z,69.73
2023-03-29T11:09:32.029Z,69.70
2023-03-29T11:10:32.011Z,69.60
2023-03-29T11:11:32.240Z,69.60
2023-03-29T11:12:31.970Z,69.49
2023-03-29T11:13:32.078Z,70.21
2023-03-29T11:14:32.059Z,69.90
2023-03-29T11:15:32.014Z,69.60
2023-03-29T11:16:32.103Z,68.96
2023-03-29T11:17:31.956Z,68.65
2023-03-29T11:18:32.287Z,69.16
2023-03-29T11:19:31.984Z,69.16
2023-03-29T11:20:31.942Z,68.96
2023-03-29T11:21:31.883Z,69.57
2023-03-29T11:22:32.132Z,69.46
2023-03-29T11:23:32.761Z,69.84
2023-03-29T11:24:32.216Z,69.23
2023-03-29T11:25:31.991Z,69.20
2023-03-29T11:26:31.824Z,68.38
2023-03-29T11:27:32.244Z,68.49
2023-03-29T11:28:32.516Z,68.05
2023-03-29T11:29:32.448Z,68.25
2023-03-29T11:30:32.780Z,67.64
2023-03-29T11:31:31.856Z,67.64
2023-03-29T11:32:31.816Z,68.86
2023-03-29T11:33:32.095Z,68.83
2023-03-29T11:34:31.998Z,67.71
2023-03-29T11:35:32.037Z,67.71
2023-03-29T11:36:31.957Z,68.29
2023-03-29T11:37:31.910Z,69.81
2023-03-29T11:38:32.133Z,66.66
2023-03-29T11:39:31.816Z,67.68
2023-03-29T11:40:31.699Z,68.08
2023-03-29T11:41:31.956Z,69.20
2023-03-29T11:42:31.656Z,69.98
2023-03-29T11:43:32.020Z,68.87
2023-03-29T11:44:32.070Z,69.24
2023-03-29T11:45:31.752Z,68.02
2023-03-29T11:46:31.727Z,67.82
2023-03-29T11:47:31.663Z,68.93
2023-03-29T11:48:32.200Z,68.93
2023-03-29T11:49:32.109Z,69.20
2023-03-29T11:50:34.705Z,70.52
2023-03-29T11:51:31.561Z,70.59
2023-03-29T11:52:31.652Z,67.65
2023-03-29T11:53:31.749Z,68.06
2023-03-29T11:54:31.545Z,66.44
2023-03-29T11:55:31.532Z,66.84
2023-03-29T11:56:31.696Z,67.96
2023-03-29T11:57:31.547Z,68.53
2023-03-29T11:58:31.535Z,67.05
2023-03-29T11:59:31.531Z,67.65
2023-03-29T12:00:31.519Z,66.94
2023-03-29T12:01:31.619Z,66.44
2023-03-29T12:02:32.182Z,66.54
2023-03-29T12:03:31.613Z,67.65
2023-03-29T12:04:31.520Z,67.22
2023-03-29T12:05:31.543Z,66.71
2023-03-29T12:06:31.402Z,67.08
2023-03-29T12:07:31.387Z,67.15
2023-03-29T12:08:31.396Z,66.24
2023-03-29T12:09:31.935Z,66.04
2023-03-29T12:10:31.363Z,65.61
2023-03-29T12:11:31.716Z,64.79
2023-03-29T12:12:31.836Z,65.17
2023-03-29T12:13:31.341Z,64.97
2023-03-29T12:14:31.587Z,64.39
2023-03-29T12:15:31.555Z,66.38
2023-03-29T12:16:31.338Z,66.45
2023-03-29T12:17:31.418Z,65.24
2023-03-29T12:18:31.272Z,64.30
2023-03-29T12:19:31.563Z,63.05
2023-03-29T12:20:31.276Z,64.46
2023-03-29T12:21:31.528Z,65.88
2023-03-29T12:22:31.404Z,66.35
2023-03-29T12:23:31.234Z,65.92
2023-03-29T12:24:31.629Z,65.71
2023-03-29T12:25:31.610Z,63.09
2023-03-29T12:26:31.180Z,63.59
2023-03-29T12:27:31.179Z,63.49
2023-03-29T12:28:31.604Z,64.50
2023-03-29T12:29:31.248Z,64.78
2023-03-29T12:30:33.208Z,64.17
2023-03-29T12:31:31.206Z,64.47
2023-03-29T12:32:32.371Z,64.04
2023-03-29T12:33:31.109Z,63.84
2023-03-29T12:34:31.132Z,63.76
2023-03-29T12:35:31.288Z,65.08
2023-03-29T12:36:31.623Z,64.78
2023-03-29T12:37:31.921Z,63.70
2023-03-29T12:38:31.267Z,64.50
2023-03-29T12:39:31.055Z,63.70
2023-03-29T12:40:31.402Z,64.43
2023-03-29T12:41:31.282Z,63.65
2023-03-29T12:42:31.240Z,64.29
2023-03-29T12:43:31.114Z,65.98
2023-03-29T12:44:31.045Z,67.49
2023-03-29T12:45:31.003Z,66.69
2023-03-29T12:46:31.159Z,66.25
2023-03-29T12:47:31.032Z,64.73
2023-03-29T12:48:31.313Z,64.81
2023-03-29T12:49:31.351Z,65.78
2023-03-29T12:50:31.722Z,64.54
2023-03-29T12:51:30.928Z,64.24
2023-03-29T12:52:31.007Z,62.45